Time;durP1;ratioP1;P1;durP2;ratioP2;P2;SDS_P1;SDS_P2;PMS_P1;PMS_P2;Temp;Humidity;BMP_temperature;BMP_pressure;BME280_temperature;BME280_humidity;BME280_pressure;Samples;Min_cycle;Max_cycle;Signal;HPM_P1;HPM_P2
2021/10/06 00:00:23;;;;;;;1.27;1.17;;;;;;;20.28;69.86;100227.30;;;;-55
2021/10/06 00:03:23;;;;;;;1.07;1.07;;;;;;;20.27;69.88;100232.98;;;;-55
2021/10/06 00:06:23;;;;;;;1.09;0.99;;;;;;;20.26;69.86;100237.78;;;;-56
2021/10/06 00:09:23;;;;;;;1.14;1.02;;;;;;;20.25;69.83;100242.84;;;;-62
2021/10/06 00:12:23;;;;;;;1.11;1.01;;;;;;;20.26;69.87;100250.09;;;;-55
2021/10/06 00:15:23;;;;;;;1.11;1.00;;;;;;;20.26;69.78;100262.12;;;;-64
2021/10/06 00:18:24;;;;;;;1.20;1.10;;;;;;;20.24;69.91;100268.30;;;;-53
2021/10/06 00:21:23;;;;;;;2.17;1.00;;;;;;;20.24;69.87;100269.19;;;;-53
2021/10/06 00:24:23;;;;;;;1.09;0.98;;;;;;;20.23;69.91;100271.66;;;;-53
2021/10/06 00:27:23;;;;;;;1.14;1.08;;;;;;;20.23;69.97;100274.06;;;;-53
2021/10/06 00:30:23;;;;;;;1.11;1.00;;;;;;;20.22;69.86;100275.55;;;;-52
2021/10/06 00:33:25;;;;;;;1.09;1.09;;;;;;;20.21;69.88;100280.60;;;;-53
2021/10/06 00:36:23;;;;;;;1.00;1.00;;;;;;;20.21;69.83;100282.69;;;;-56
2021/10/06 00:39:23;;;;;;;1.34;1.08;;;;;;;20.19;69.89;100281.81;;;;-56
2021/10/06 00:42:23;;;;;;;1.10;1.00;;;;;;;20.19;69.92;100282.39;;;;-56
2021/10/06 00:45:23;;;;;;;1.22;1.11;;;;;;;20.20;69.89;100290.19;;;;-56
2021/10/06 00:48:23;;;;;;;1.16;1.06;;;;;;;20.17;69.95;100293.86;;;;-53
2021/10/06 00:51:23;;;;;;;1.73;1.01;;;;;;;20.18;69.88;100295.31;;;;-50
2021/10/06 00:54:23;;;;;;;1.08;1.00;;;;;;;20.17;69.92;100293.83;;;;-50
2021/10/06 00:57:23;;;;;;;0.89;0.89;;;;;;;20.17;69.91;100303.44;;;;-62
2021/10/06 01:00:23;;;;;;;1.53;1.10;;;;;;;20.16;69.93;100299.47;;;;-50
2021/10/06 01:03:23;;;;;;;1.19;1.09;;;;;;;20.16;69.86;100303.20;;;;-55
2021/10/06 01:06:22;;;;;;;1.89;1.08;;;;;;;20.15;69.92;100299.36;;;;-64
2021/10/06 01:09:23;;;;;;;0.99;0.99;;;;;;;20.15;69.94;100307.83;;;;-53
2021/10/06 01:12:22;;;;;;;1.20;1.10;;;;;;;20.13;69.93;100309.80;;;;-53
2021/10/06 01:15:22;;;;;;;1.19;1.05;;;;;;;20.13;69.95;100312.65;;;;-52
2021/10/06 01:18:23;;;;;;;1.20;1.10;;;;;;;20.12;69.99;100319.70;;;;-64
2021/10/06 01:21:23;;;;;;;1.01;1.00;;;;;;;20.12;69.97;100323.95;;;;-63
2021/10/06 01:24:22;;;;;;;1.17;1.05;;;;;;;20.12;69.89;100326.78;;;;-53
2021/10/06 01:27:23;;;;;;;1.33;1.10;;;;;;;20.12;69.92;100331.19;;;;-53
2021/10/06 01:30:23;;;;;;;1.20;1.10;;;;;;;20.10;69.96;100331.99;;;;-51
2021/10/06 01:33:23;;;;;;;0.97;0.97;;;;;;;20.10;69.98;100335.41;;;;-52
2021/10/06 01:36:22;;;;;;;1.00;1.00;;;;;;;20.10;69.91;100338.42;;;;-50
2021/10/06 01:39:23;;;;;;;1.00;1.00;;;;;;;20.09;69.93;100344.77;;;;-50
2021/10/06 01:42:23;;;;;;;1.19;1.00;;;;;;;20.09;69.99;100347.38;;;;-52
2021/10/06 01:45:23;;;;;;;1.08;0.98;;;;;;;20.08;69.97;100346.23;;;;-50
2021/10/06 01:48:23;;;;;;;1.46;1.10;;;;;;;20.08;69.99;100352.41;;;;-50
2021/10/06 01:51:23;;;;;;;1.09;1.00;;;;;;;20.08;69.97;100351.35;;;;-50
2021/10/06 01:54:23;;;;;;;1.21;1.09;;;;;;;20.08;69.99;100352.98;;;;-51
2021/10/06 01:57:23;;;;;;;1.00;0.96;;;;;;;20.07;70.02;100349.66;;;;-51
2021/10/06 02:00:22;;;;;;;1.11;1.01;;;;;;;20.06;69.99;100351.34;;;;-51
2021/10/06 02:03:23;;;;;;;1.00;1.00;;;;;;;20.06;69.95;100351.51;;;;-50
2021/10/06 02:06:23;;;;;;;1.32;1.06;;;;;;;20.06;70.07;100355.33;;;;-56
2021/10/06 02:09:22;;;;;;;1.07;1.05;;;;;;;20.05;70.04;100355.50;;;;-56
2021/10/06 02:12:23;;;;;;;1.03;1.03;;;;;;;20.05;70.00;100354.94;;;;-56
2021/10/06 02:15:22;;;;;;;1.00;1.00;;;;;;;20.04;69.98;100359.64;;;;-55
2021/10/06 02:18:23;;;;;;;0.90;0.90;;;;;;;20.04;69.97;100365.00;;;;-56
2021/10/06 02:21:22;;;;;;;0.90;0.90;;;;;;;20.03;70.02;100363.80;;;;-55
2021/10/06 02:24:22;;;;;;;0.90;0.90;;;;;;;20.03;70.00;100366.73;;;;-55
2021/10/06 02:27:23;;;;;;;1.00;1.00;;;;;;;20.03;69.99;100362.34;;;;-55
2021/10/06 02:30:22;;;;;;;1.03;1.00;;;;;;;20.02;70.00;100360.94;;;;-56
2021/10/06 02:33:22;;;;;;;1.05;1.00;;;;;;;20.01;70.05;100355.41;;;;-56
2021/10/06 02:36:23;;;;;;;1.17;1.04;;;;;;;20.00;70.00;100348.06;;;;-55
2021/10/06 02:39:23;;;;;;;0.92;0.92;;;;;;;20.01;70.05;100349.48;;;;-56
2021/10/06 02:42:22;;;;;;;1.12;1.05;;;;;;;19.99;70.03;100348.00;;;;-56
2021/10/06 02:45:23;;;;;;;0.93;0.93;;;;;;;20.00;70.03;100351.66;;;;-56
2021/10/06 02:48:23;;;;;;;0.81;0.81;;;;;;;20.00;70.01;100349.37;;;;-56
2021/10/06 02:51:23;;;;;;;1.05;1.05;;;;;;;19.99;69.98;100346.70;;;;-56
2021/10/06 02:54:23;;;;;;;1.31;1.06;;;;;;;19.99;70.01;100350.44;;;;-55
2021/10/06 02:57:22;;;;;;;1.03;1.03;;;;;;;19.99;70.00;100351.51;;;;-50
2021/10/06 03:00:23;;;;;;;1.05;0.98;;;;;;;19.99;70.04;100357.69;;;;-50
2021/10/06 03:03:22;;;;;;;1.09;1.03;;;;;;;19.98;70.00;100361.41;;;;-50
2021/10/06 03:06:23;;;;;;;1.15;1.07;;;;;;;19.97;70.06;100366.95;;;;-51
2021/10/06 03:09:22;;;;;;;1.09;1.09;;;;;;;19.97;70.05;100369.88;;;;-50
2021/10/06 03:12:23;;;;;;;1.41;0.95;;;;;;;19.97;70.02;100368.25;;;;-50
2021/10/06 03:15:22;;;;;;;0.97;0.97;;;;;;;19.96;70.06;100369.97;;;;-50
2021/10/06 03:18:22;;;;;;;0.99;0.98;;;;;;;19.95;70.06;100367.51;;;;-52
2021/10/06 03:21:22;;;;;;;1.10;1.10;;;;;;;19.96;70.05;100373.93;;;;-50
2021/10/06 03:24:23;;;;;;;1.00;1.00;;;;;;;19.95;70.02;100378.91;;;;-50
2021/10/06 03:27:23;;;;;;;1.12;1.03;;;;;;;19.94;70.09;100381.33;;;;-50
2021/10/06 03:30:22;;;;;;;1.20;1.10;;;;;;;19.93;70.08;100381.00;;;;-51
2021/10/06 03:33:23;;;;;;;0.94;0.93;;;;;;;19.93;70.09;100383.94;;;;-51
2021/10/06 03:36:23;;;;;;;1.15;1.05;;;;;;;19.93;70.05;100387.43;;;;-50
2021/10/06 03:39:22;;;;;;;1.17;1.07;;;;;;;19.92;70.08;100392.41;;;;-52
2021/10/06 03:42:23;;;;;;;0.93;0.93;;;;;;;19.93;70.08;100392.64;;;;-53
2021/10/06 03:45:22;;;;;;;1.00;1.00;;;;;;;19.91;70.04;100397.42;;;;-52
2021/10/06 03:48:22;;;;;;;1.05;0.97;;;;;;;19.91;70.02;100401.83;;;;-52
2021/10/06 03:51:23;;;;;;;1.19;1.05;;;;;;;19.90;70.05;100404.35;;;;-53
2021/10/06 03:54:22;;;;;;;1.12;1.01;;;;;;;19.91;70.05;100404.10;;;;-53
2021/10/06 03:57:22;;;;;;;0.93;0.93;;;;;;;19.90;70.06;100406.36;;;;-53
2021/10/06 04:00:22;;;;;;;0.91;0.91;;;;;;;19.91;70.03;100402.88;;;;-53
2021/10/06 04:03:23;;;;;;;1.00;1.00;;;;;;;19.89;70.07;100404.09;;;;-53
2021/10/06 04:06:23;;;;;;;1.03;0.96;;;;;;;19.89;70.06;100408.06;;;;-53
2021/10/06 04:09:23;;;;;;;1.00;1.00;;;;;;;19.89;70.03;100417.67;;;;-53
2021/10/06 04:12:22;;;;;;;1.39;0.93;;;;;;;19.89;70.04;100425.56;;;;-53
2021/10/06 04:15:22;;;;;;;0.90;0.90;;;;;;;19.88;69.99;100427.60;;;;-53
2021/10/06 04:18:22;;;;;;;1.11;0.99;;;;;;;19.89;70.01;100426.54;;;;-63
2021/10/06 04:21:23;;;;;;;1.11;0.90;;;;;;;19.89;70.03;100430.69;;;;-62
2021/10/06 04:24:22;;;;;;;1.00;0.95;;;;;;;19.88;70.04;100439.07;;;;-63
2021/10/06 04:27:22;;;;;;;0.97;0.95;;;;;;;19.88;70.03;100442.57;;;;-64
2021/10/06 04:30:23;;;;;;;0.99;0.99;;;;;;;19.87;70.08;100447.09;;;;-64
2021/10/06 04:33:22;;;;;;;1.01;1.00;;;;;;;19.87;70.06;100448.07;;;;-63
2021/10/06 04:36:22;;;;;;;2.97;1.17;;;;;;;19.88;68.95;100457.29;;;;-65
2021/10/06 04:39:22;;;;;;;1.86;1.33;;;;;;;19.81;63.71;100465.70;;;;-52
2021/10/06 04:42:23;;;;;;;3.30;1.48;;;;;;;19.62;62.84;100470.20;;;;-56
2021/10/06 04:45:23;;;;;;;4.21;1.58;;;;;;;19.54;65.38;100465.77;;;;-49
2021/10/06 04:48:22;;;;;;;4.81;1.51;;;;;;;19.54;66.30;100465.77;;;;-49
2021/10/06 04:51:23;;;;;;;3.15;1.45;;;;;;;19.58;66.74;100467.57;;;;-51
2021/10/06 04:54:22;;;;;;;3.79;1.52;;;;;;;19.60;67.14;100464.33;;;;-53
2021/10/06 04:57:22;;;;;;;4.17;1.59;;;;;;;19.63;67.40;100460.92;;;;-50
2021/10/06 05:00:22;;;;;;;3.42;1.40;;;;;;;19.65;67.39;100456.98;;;;-50
2021/10/06 05:03:23;;;;;;;4.97;1.53;;;;;;;19.67;67.75;100456.99;;;;-50
2021/10/06 05:06:22;;;;;;;2.79;1.54;;;;;;;19.67;67.75;100468.13;;;;-50
2021/10/06 05:09:22;;;;;;;2.97;1.49;;;;;;;19.68;67.83;100473.48;;;;-59
2021/10/06 05:12:23;;;;;;;4.39;1.33;;;;;;;19.69;68.03;100478.92;;;;-59
2021/10/06 05:15:23;;;;;;;2.87;1.45;;;;;;;19.69;68.11;100482.94;;;;-51
2021/10/06 05:18:23;;;;;;;2.05;1.25;;;;;;;19.70;68.17;100483.09;;;;-50
2021/10/06 05:21:22;;;;;;;2.16;1.21;;;;;;;19.70;68.26;100484.64;;;;-50
2021/10/06 05:24:22;;;;;;;1.83;1.35;;;;;;;19.69;68.31;100481.15;;;;-50
2021/10/06 05:27:23;;;;;;;3.52;1.30;;;;;;;19.71;68.35;100482.31;;;;-50
2021/10/06 05:30:22;;;;;;;2.38;1.39;;;;;;;19.70;68.45;100484.19;;;;-50
2021/10/06 05:33:22;;;;;;;2.10;1.35;;;;;;;19.71;68.46;100481.01;;;;-59
2021/10/06 05:36:23;;;;;;;2.07;1.40;;;;;;;19.70;68.53;100484.08;;;;-59
2021/10/06 05:39:22;;;;;;;1.89;1.29;;;;;;;19.70;68.53;100477.98;;;;-59
2021/10/06 05:42:22;;;;;;;1.53;1.35;;;;;;;19.69;68.58;100482.13;;;;-59
2021/10/06 05:45:23;;;;;;;2.21;1.31;;;;;;;19.69;68.64;100481.52;;;;-59
2021/10/06 05:48:22;;;;;;;2.85;1.25;;;;;;;19.69;68.69;100479.66;;;;-59
2021/10/06 05:51:23;;;;;;;2.27;1.40;;;;;;;19.69;68.71;100486.67;;;;-59
2021/10/06 05:54:22;;;;;;;1.89;1.20;;;;;;;19.69;68.72;100494.37;;;;-59
2021/10/06 05:57:22;;;;;;;2.01;1.26;;;;;;;19.70;68.74;100498.14;;;;-59
2021/10/06 06:00:22;;;;;;;2.61;1.30;;;;;;;19.69;68.81;100503.43;;;;-58
2021/10/06 06:03:22;;;;;;;1.71;1.25;;;;;;;19.69;68.78;100516.59;;;;-59
2021/10/06 06:06:22;;;;;;;1.56;1.27;;;;;;;19.70;68.84;100516.68;;;;-57
2021/10/06 06:09:23;;;;;;;1.67;1.19;;;;;;;19.70;68.87;100521.47;;;;-57
2021/10/06 06:12:22;;;;;;;1.37;1.25;;;;;;;19.70;68.88;100519.36;;;;-57
2021/10/06 06:15:22;;;;;;;1.59;1.31;;;;;;;19.69;68.89;100519.25;;;;-57
2021/10/06 06:18:22;;;;;;;1.37;1.20;;;;;;;19.70;68.92;100524.16;;;;-55
2021/10/06 06:21:22;;;;;;;2.71;1.39;;;;;;;19.69;68.93;100533.81;;;;-57
2021/10/06 06:24:22;;;;;;;1.33;1.19;;;;;;;19.69;68.95;100539.09;;;;-55
2021/10/06 06:27:22;;;;;;;1.32;1.17;;;;;;;19.69;68.95;100544.70;;;;-57
2021/10/06 06:30:22;;;;;;;1.82;1.26;;;;;;;19.69;68.98;100547.88;;;;-57
2021/10/06 06:33:22;;;;;;;1.18;1.08;;;;;;;19.69;68.97;100548.85;;;;-56
2021/10/06 06:36:22;;;;;;;1.65;1.33;;;;;;;19.69;68.96;100555.03;;;;-56
2021/10/06 06:39:22;;;;;;;1.28;1.18;;;;;;;19.68;69.01;100557.16;;;;-56
2021/10/06 06:42:22;;;;;;;1.29;1.19;;;;;;;19.68;69.10;100552.19;;;;-56
2021/10/06 06:45:22;;;;;;;2.29;1.37;;;;;;;19.69;69.06;100556.73;;;;-56
2021/10/06 06:48:22;;;;;;;1.38;1.20;;;;;;;19.67;69.06;100553.17;;;;-56
2021/10/06 06:51:22;;;;;;;1.61;1.20;;;;;;;19.68;69.04;100556.66;;;;-57
2021/10/06 06:54:22;;;;;;;1.74;1.26;;;;;;;19.68;69.09;100562.36;;;;-57
2021/10/06 06:57:23;;;;;;;1.89;1.25;;;;;;;19.68;69.08;100575.45;;;;-59
2021/10/06 07:00:22;;;;;;;2.44;1.19;;;;;;;19.68;69.11;100577.97;;;;-59
2021/10/06 07:03:22;;;;;;;1.73;1.19;;;;;;;19.67;69.14;100586.42;;;;-59
2021/10/06 07:06:23;;;;;;;1.37;1.27;;;;;;;19.67;69.10;100584.72;;;;-59
2021/10/06 07:09:25;;;;;;;1.90;1.27;;;;;;;19.67;69.13;100583.17;;;;-57
2021/10/06 07:12:22;;;;;;;1.23;1.10;;;;;;;19.67;69.14;100587.70;;;;-59
2021/10/06 07:15:23;;;;;;;1.33;1.12;;;;;;;19.67;69.14;100591.44;;;;-56
2021/10/06 07:18:22;;;;;;;1.79;1.17;;;;;;;19.65;69.18;100588.77;;;;-57
2021/10/06 07:21:22;;;;;;;1.39;1.12;;;;;;;19.67;69.16;100597.30;;;;-56
2021/10/06 07:24:22;;;;;;;1.63;1.20;;;;;;;19.66;69.15;100595.92;;;;-56
2021/10/06 07:27:22;;;;;;;1.36;1.13;;;;;;;19.66;69.13;100604.21;;;;-56
2021/10/06 07:30:22;;;;;;;1.61;1.16;;;;;;;19.67;69.19;100607.70;;;;-50
2021/10/06 07:33:22;;;;;;;1.53;1.15;;;;;;;19.66;69.19;100612.50;;;;-57
2021/10/06 07:36:24;;;;;;;1.39;1.20;;;;;;;19.65;69.23;100610.39;;;;-55
2021/10/06 07:39:22;;;;;;;1.36;1.19;;;;;;;19.66;69.15;100610.15;;;;-56
2021/10/06 07:42:22;;;;;;;1.89;1.30;;;;;;;19.65;69.20;100611.45;;;;-59
2021/10/06 07:45:22;;;;;;;1.29;1.19;;;;;;;19.66;69.18;100624.13;;;;-58
2021/10/06 07:48:22;;;;;;;1.43;1.30;;;;;;;19.66;69.21;100639.66;;;;-59
2021/10/06 07:51:22;;;;;;;1.71;1.23;;;;;;;19.66;69.19;100648.77;;;;-59
2021/10/06 07:54:22;;;;;;;2.56;1.28;;;;;;;19.68;69.22;100657.16;;;;-59
2021/10/06 07:57:22;;;;;;;1.25;1.15;;;;;;;19.69;69.26;100657.09;;;;-59
2021/10/06 08:00:22;;;;;;;1.68;1.29;;;;;;;19.73;69.35;100657.63;;;;-57
2021/10/06 08:03:22;;;;;;;3.26;1.29;;;;;;;19.75;69.49;100661.71;;;;-57
2021/10/06 08:06:22;;;;;;;2.20;1.19;;;;;;;19.78;69.58;100663.87;;;;-57
2021/10/06 08:09:22;;;;;;;1.67;1.18;;;;;;;19.79;69.67;100657.35;;;;-50
2021/10/06 08:12:22;;;;;;;1.22;1.10;;;;;;;19.83;69.74;100656.58;;;;-52
2021/10/06 08:15:23;;;;;;;3.51;1.30;;;;;;;19.83;69.64;100666.00;;;;-52
2021/10/06 08:18:22;;;;;;;4.39;1.29;;;;;;;19.84;69.57;100663.91;;;;-52
2021/10/06 08:21:22;;;;;;;1.47;1.18;;;;;;;19.86;69.58;100670.36;;;;-53
2021/10/06 08:24:22;;;;;;;2.71;1.33;;;;;;;19.89;69.49;100672.16;;;;-52
2021/10/06 08:27:22;;;;;;;1.40;1.25;;;;;;;19.91;69.47;100681.28;;;;-53
2021/10/06 08:30:22;;;;;;;1.15;1.05;;;;;;;19.94;69.46;100687.64;;;;-52
2021/10/06 08:33:22;;;;;;;2.41;1.26;;;;;;;19.98;69.70;100694.50;;;;-58
2021/10/06 08:36:22;;;;;;;3.24;1.34;;;;;;;20.02;70.04;100695.20;;;;-60
2021/10/06 08:39:22;;;;;;;1.47;1.10;;;;;;;20.05;69.97;100692.38;;;;-63
2021/10/06 08:42:23;;;;;;;1.87;1.29;;;;;;;20.08;69.68;100691.66;;;;-59
2021/10/06 08:45:22;;;;;;;1.45;1.20;;;;;;;20.12;69.62;100685.67;;;;-62
2021/10/06 08:48:22;;;;;;;1.53;1.20;;;;;;;20.14;69.67;100685.84;;;;-57
2021/10/06 08:51:22;;;;;;;2.27;1.25;;;;;;;20.18;69.52;100691.34;;;;-60
2021/10/06 08:54:23;;;;;;;1.58;1.15;;;;;;;20.21;69.79;100692.34;;;;-61
2021/10/06 08:57:22;;;;;;;1.83;1.30;;;;;;;20.24;69.72;100696.91;;;;-59
2021/10/06 09:00:22;;;;;;;1.81;1.10;;;;;;;20.27;69.19;100698.63;;;;-60
2021/10/06 09:03:22;;;;;;;11.09;1.37;;;;;;;20.30;69.58;100702.41;;;;-64
2021/10/06 09:06:22;;;;;;;1.82;1.20;;;;;;;20.32;69.34;100698.19;;;;-66
2021/10/06 09:09:23;;;;;;;1.43;1.16;;;;;;;20.33;69.17;100701.20;;;;-63
2021/10/06 09:12:23;;;;;;;5.26;1.31;;;;;;;20.36;69.30;100708.85;;;;-58
2021/10/06 09:15:22;;;;;;;2.77;1.30;;;;;;;20.38;69.50;100709.55;;;;-55
2021/10/06 09:18:22;;;;;;;2.36;1.34;;;;;;;20.40;69.81;100713.88;;;;-58
2021/10/06 09:21:22;;;;;;;3.82;1.39;;;;;;;20.42;69.70;100720.70;;;;-54
2021/10/06 09:24:22;;;;;;;1.48;1.36;;;;;;;20.44;70.01;100718.76;;;;-54
2021/10/06 09:27:22;;;;;;;1.75;1.11;;;;;;;20.45;69.81;100714.22;;;;-57
2021/10/06 09:30:24;;;;;;;1.92;1.20;;;;;;;20.47;69.88;100713.17;;;;-57
2021/10/06 09:33:22;;;;;;;2.17;1.10;;;;;;;20.48;69.88;100711.00;;;;-57
2021/10/06 09:36:24;;;;;;;2.77;1.21;;;;;;;20.49;69.78;100725.32;;;;-51
2021/10/06 09:39:22;;;;;;;5.02;1.53;;;;;;;20.49;69.32;100725.73;;;;-51
2021/10/06 09:42:22;;;;;;;2.76;1.43;;;;;;;20.51;68.68;100724.61;;;;-55
2021/10/06 09:45:22;;;;;;;2.37;1.18;;;;;;;20.51;69.02;100720.21;;;;-60
2021/10/06 09:48:22;;;;;;;2.85;1.25;;;;;;;20.52;68.95;100722.72;;;;-57
2021/10/06 09:51:22;;;;;;;2.63;1.20;;;;;;;20.52;69.33;100724.92;;;;-60
2021/10/06 09:54:22;;;;;;;3.49;1.31;;;;;;;20.53;69.31;100727.55;;;;-61
2021/10/06 09:57:22;;;;;;;4.15;1.37;;;;;;;20.53;69.31;100724.86;;;;-58
2021/10/06 10:00:23;;;;;;;1.89;1.23;;;;;;;20.53;69.30;100716.23;;;;-48
2021/10/06 10:03:22;;;;;;;2.55;1.34;;;;;;;20.57;69.19;100704.94;;;;-58
2021/10/06 10:06:22;;;;;;;1.83;1.22;;;;;;;20.56;69.17;100700.76;;;;-56
2021/10/06 10:09:22;;;;;;;4.33;1.26;;;;;;;20.56;69.32;100712.90;;;;-53
2021/10/06 10:12:22;;;;;;;1.98;1.21;;;;;;;20.56;69.28;100716.97;;;;-53
2021/10/06 10:15:22;;;;;;;1.87;1.13;;;;;;;20.56;69.18;100725.44;;;;-53
2021/10/06 10:18:22;;;;;;;4.04;1.20;;;;;;;20.56;69.26;100740.33;;;;-55
2021/10/06 10:21:23;;;;;;;2.27;1.25;;;;;;;20.57;69.17;100737.02;;;;-52
2021/10/06 10:24:22;;;;;;;2.37;1.25;;;;;;;20.56;69.27;100745.22;;;;-57
2021/10/06 10:27:22;;;;;;;4.54;1.39;;;;;;;20.56;69.34;100739.35;;;;-59
2021/10/06 10:30:22;;;;;;;2.12;1.19;;;;;;;20.56;69.25;100744.73;;;;-57
2021/10/06 10:33:22;;;;;;;3.80;1.20;;;;;;;20.57;69.26;100744.67;;;;-54
2021/10/06 10:36:22;;;;;;;2.58;1.39;;;;;;;20.58;69.18;100742.82;;;;-53
2021/10/06 10:39:22;;;;;;;2.17;1.28;;;;;;;20.58;69.15;100746.41;;;;-54
2021/10/06 10:42:22;;;;;;;1.78;1.31;;;;;;;20.57;69.04;100744.42;;;;-54
2021/10/06 10:45:22;;;;;;;1.97;1.20;;;;;;;20.56;68.97;100749.53;;;;-54
2021/10/06 10:48:22;;;;;;;2.46;1.30;;;;;;;20.55;68.98;100745.96;;;;-54
2021/10/06 10:51:22;;;;;;;2.30;1.31;;;;;;;20.55;69.01;100750.60;;;;-53
2021/10/06 10:54:22;;;;;;;3.69;1.40;;;;;;;20.54;68.89;100752.37;;;;-54
2021/10/06 10:57:22;;;;;;;2.26;1.29;;;;;;;20.54;68.99;100752.30;;;;-54
2021/10/06 11:00:22;;;;;;;1.68;1.29;;;;;;;20.53;69.01;100757.42;;;;-58
2021/10/06 11:03:22;;;;;;;2.45;1.14;;;;;;;20.53;68.97;100760.52;;;;-58
2021/10/06 11:06:22;;;;;;;1.27;1.10;;;;;;;20.53;68.86;100755.72;;;;-56
2021/10/06 11:09:22;;;;;;;4.21;1.23;;;;;;;20.54;68.82;100759.78;;;;-58
2021/10/06 11:14:23;;;;;;;3.75;1.20;;;;;;;20.54;68.84;100752.45;;;;-54
2021/10/06 11:17:22;;;;;;;3.01;1.33;;;;;;;20.52;68.84;100746.74;;;;-54
2021/10/06 11:20:22;;;;;;;2.39;1.13;;;;;;;20.52;68.90;100745.77;;;;-53
2021/10/06 11:23:22;;;;;;;1.53;1.19;;;;;;;20.52;68.84;100744.73;;;;-54
2021/10/06 11:27:22;;;;;;;2.20;1.20;;;;;;;20.52;68.84;100746.69;;;;-54
2021/10/06 11:30:22;;;;;;;1.73;1.16;;;;;;;20.52;68.86;100738.92;;;;-53
2021/10/06 11:33:22;;;;;;;3.04;1.10;;;;;;;20.51;68.78;100739.01;;;;-54
2021/10/06 11:36:22;;;;;;;1.47;1.10;;;;;;;20.51;68.77;100741.38;;;;-54
2021/10/06 11:39:22;;;;;;;3.05;1.29;;;;;;;20.50;68.84;100741.27;;;;-54
2021/10/06 11:42:22;;;;;;;2.13;1.17;;;;;;;20.51;68.81;100742.84;;;;-50
2021/10/06 11:45:23;;;;;;;1.44;1.20;;;;;;;20.50;68.82;100732.67;;;;-51
2021/10/06 11:48:22;;;;;;;1.30;1.18;;;;;;;20.50;68.74;100729.73;;;;-51
2021/10/06 11:51:22;;;;;;;1.43;1.08;;;;;;;20.50;68.79;100727.45;;;;-51
2021/10/06 11:54:24;;;;;;;1.44;1.14;;;;;;;20.50;68.78;100726.20;;;;-50
2021/10/06 11:57:22;;;;;;;3.08;1.10;;;;;;;20.50;68.76;100729.88;;;;-53
2021/10/06 12:00:22;;;;;;;1.39;1.03;;;;;;;20.51;68.73;100722.00;;;;-58
2021/10/06 12:03:22;;;;;;;1.67;1.20;;;;;;;20.50;68.77;100725.83;;;;-58
2021/10/06 12:06:23;;;;;;;1.14;1.09;;;;;;;20.51;68.74;100728.10;;;;-58
2021/10/06 12:09:22;;;;;;;1.41;1.15;;;;;;;20.51;68.77;100725.42;;;;-58
2021/10/06 12:12:22;;;;;;;2.07;1.13;;;;;;;20.51;68.79;100725.50;;;;-54
2021/10/06 12:15:23;;;;;;;1.66;1.09;;;;;;;20.50;68.76;100720.19;;;;-49
2021/10/06 12:18:22;;;;;;;1.41;1.10;;;;;;;20.51;68.72;100720.70;;;;-51
2021/10/06 12:21:22;;;;;;;1.64;1.10;;;;;;;20.50;68.74;100725.83;;;;-51
2021/10/06 12:24:22;;;;;;;2.73;1.10;;;;;;;20.51;68.70;100729.00;;;;-51
2021/10/06 12:27:22;;;;;;;1.27;1.07;;;;;;;20.50;68.74;100725.55;;;;-49
2021/10/06 12:30:22;;;;;;;1.25;1.15;;;;;;;20.50;68.74;100722.73;;;;-49
2021/10/06 12:33:22;;;;;;;1.49;1.02;;;;;;;20.49;68.72;100736.95;;;;-49
2021/10/06 12:36:22;;;;;;;1.16;1.10;;;;;;;20.51;68.73;100739.91;;;;-49
2021/10/06 12:39:22;;;;;;;1.72;1.19;;;;;;;20.51;68.74;100753.83;;;;-51
2021/10/06 12:42:22;;;;;;;1.20;1.03;;;;;;;20.51;69.00;100752.45;;;;-56
2021/10/06 12:45:25;;;;;;;3.76;1.10;;;;;;;20.52;68.89;100754.96;;;;-57
2021/10/06 12:48:22;;;;;;;1.96;1.05;;;;;;;20.53;68.92;100762.39;;;;-57
2021/10/06 12:51:22;;;;;;;1.82;1.21;;;;;;;20.54;68.91;100781.44;;;;-54
2021/10/06 12:54:22;;;;;;;2.23;1.20;;;;;;;20.56;69.00;100767.53;;;;-54
2021/10/06 12:57:22;;;;;;;1.69;1.19;;;;;;;20.58;69.00;100756.98;;;;-54
2021/10/06 13:00:22;;;;;;;2.31;1.23;;;;;;;20.63;69.12;100751.64;;;;-57
2021/10/06 13:03:22;;;;;;;2.01;1.10;;;;;;;20.66;69.15;100742.63;;;;-55
2021/10/06 13:06:22;;;;;;;1.36;1.13;;;;;;;20.70;69.20;100750.88;;;;-57
2021/10/06 13:09:22;;;;;;;1.25;1.14;;;;;;;20.74;69.14;100763.04;;;;-55
2021/10/06 13:12:22;;;;;;;1.29;1.09;;;;;;;20.76;69.28;100768.02;;;;-56
2021/10/06 13:15:22;;;;;;;1.81;1.10;;;;;;;20.79;69.28;100769.58;;;;-50
2021/10/06 13:18:22;;;;;;;2.56;1.13;;;;;;;20.80;69.31;100761.94;;;;-57
2021/10/06 13:21:23;;;;;;;1.26;1.16;;;;;;;20.83;69.06;100763.48;;;;-52
2021/10/06 13:24:22;;;;;;;2.91;1.46;;;;;;;20.83;68.93;100764.47;;;;-56
2021/10/06 13:27:22;;;;;;;4.86;1.49;;;;;;;20.76;67.49;100764.84;;;;-60
2021/10/06 13:30:22;;;;;;;3.35;1.41;;;;;;;20.73;67.87;100770.22;;;;-54
2021/10/06 13:33:22;;;;;;;4.57;1.61;;;;;;;20.77;68.35;100763.48;;;;-57
2021/10/06 13:36:22;;;;;;;5.68;1.65;;;;;;;20.83;68.56;100763.16;;;;-49
2021/10/06 13:39:22;;;;;;;2.68;1.39;;;;;;;20.87;68.65;100770.52;;;;-47
2021/10/06 13:42:23;;;;;;;3.43;1.50;;;;;;;20.91;68.36;100769.65;;;;-51
2021/10/06 13:45:22;;;;;;;2.59;1.41;;;;;;;20.94;68.37;100769.59;;;;-59
2021/10/06 13:48:22;;;;;;;2.37;1.60;;;;;;;20.97;68.63;100768.45;;;;-52
2021/10/06 13:51:22;;;;;;;3.72;1.53;;;;;;;21.02;68.80;100770.67;;;;-49
2021/10/06 13:54:22;;;;;;;4.45;1.53;;;;;;;21.06;68.82;100772.08;;;;-56
2021/10/06 13:57:22;;;;;;;2.35;1.50;;;;;;;21.09;68.72;100774.55;;;;-58
2021/10/06 14:00:22;;;;;;;3.15;1.47;;;;;;;21.12;68.91;100778.63;;;;-57
2021/10/06 14:03:22;;;;;;;2.75;1.40;;;;;;;21.14;68.90;100775.13;;;;-59
2021/10/06 14:06:22;;;;;;;3.79;1.63;;;;;;;21.16;68.77;100773.84;;;;-51
2021/10/06 14:09:22;;;;;;;2.17;1.49;;;;;;;21.16;68.84;100778.41;;;;-53
2021/10/06 14:12:24;;;;;;;2.29;1.41;;;;;;;21.19;69.05;100787.08;;;;-52
2021/10/06 14:15:22;;;;;;;2.62;1.51;;;;;;;21.20;68.93;100795.05;;;;-51
2021/10/06 14:18:22;;;;;;;2.53;1.45;;;;;;;21.22;68.99;100812.83;;;;-60
2021/10/06 14:21:22;;;;;;;3.80;1.40;;;;;;;21.25;69.08;100809.59;;;;-53
2021/10/06 14:24:22;;;;;;;3.66;1.46;;;;;;;21.25;69.14;100812.94;;;;-63
2021/10/06 14:27:22;;;;;;;1.53;1.43;;;;;;;21.28;69.08;100821.99;;;;-57
2021/10/06 14:30:22;;;;;;;1.62;1.39;;;;;;;21.29;68.98;100822.66;;;;-57
2021/10/06 14:33:22;;;;;;;1.70;1.32;;;;;;;21.31;69.03;100826.23;;;;-54
2021/10/06 14:36:22;;;;;;;2.41;1.30;;;;;;;21.33;69.02;100832.06;;;;-56
2021/10/06 14:39:22;;;;;;;3.26;1.51;;;;;;;21.32;68.45;100831.39;;;;-61
2021/10/06 14:42:22;;;;;;;2.63;1.57;;;;;;;21.32;68.38;100832.94;;;;-58
2021/10/06 14:45:25;;;;;;;2.93;1.43;;;;;;;21.32;68.30;100838.40;;;;-60
2021/10/06 14:48:22;;;;;;;1.77;1.45;;;;;;;21.31;68.16;100835.45;;;;-61
2021/10/06 14:51:22;;;;;;;1.86;1.40;;;;;;;21.30;68.02;100840.50;;;;-53
2021/10/06 14:54:22;;;;;;;2.32;1.43;;;;;;;21.29;68.11;100841.98;;;;-53
2021/10/06 14:57:22;;;;;;;5.76;1.63;;;;;;;21.29;68.00;100839.38;;;;-61
2021/10/06 15:00:22;;;;;;;2.04;1.45;;;;;;;21.29;67.89;100843.78;;;;-60
2021/10/06 15:03:22;;;;;;;3.29;1.40;;;;;;;21.27;67.87;100846.05;;;;-52
2021/10/06 15:06:22;;;;;;;2.03;1.41;;;;;;;21.27;67.87;100847.92;;;;-51
2021/10/06 15:09:22;;;;;;;1.87;1.43;;;;;;;21.26;67.86;100853.69;;;;-52
2021/10/06 15:12:22;;;;;;;1.85;1.45;;;;;;;21.26;67.82;100859.08;;;;-60
2021/10/06 15:15:22;;;;;;;2.42;1.47;;;;;;;21.25;67.87;100862.02;;;;-61
2021/10/06 15:18:22;;;;;;;2.40;1.41;;;;;;;21.24;67.73;100864.52;;;;-61
2021/10/06 15:21:22;;;;;;;2.06;1.34;;;;;;;21.24;67.72;100867.55;;;;-53
2021/10/06 15:24:22;;;;;;;2.03;1.37;;;;;;;21.23;67.76;100865.09;;;;-53
2021/10/06 15:27:22;;;;;;;2.21;1.32;;;;;;;21.22;67.72;100861.81;;;;-53
2021/10/06 15:30:22;;;;;;;4.27;1.41;;;;;;;21.19;67.89;100864.58;;;;-52
2021/10/06 15:33:22;;;;;;;2.24;1.69;;;;;;;21.18;67.21;100869.05;;;;-52
2021/10/06 15:36:22;;;;;;;4.45;1.56;;;;;;;21.19;67.50;100868.91;;;;-55
2021/10/06 15:39:22;;;;;;;4.89;1.61;;;;;;;21.19;67.73;100868.00;;;;-51
2021/10/06 15:42:22;;;;;;;3.65;1.59;;;;;;;21.20;67.81;100866.12;;;;-59
2021/10/06 15:45:22;;;;;;;3.10;1.60;;;;;;;21.19;67.66;100867.03;;;;-59
2021/10/06 15:48:22;;;;;;;3.22;1.50;;;;;;;21.19;67.70;100872.17;;;;-51
2021/10/06 15:51:22;;;;;;;3.59;1.41;;;;;;;21.17;67.71;100871.09;;;;-59
2021/10/06 15:54:22;;;;;;;2.75;1.39;;;;;;;21.16;67.69;100870.67;;;;-52
2021/10/06 15:57:22;;;;;;;3.69;1.51;;;;;;;21.15;67.71;100871.00;;;;-51
2021/10/06 16:00:22;;;;;;;3.26;1.47;;;;;;;21.14;67.70;100873.43;;;;-51
2021/10/06 16:03:22;;;;;;;2.45;1.41;;;;;;;21.13;67.72;100871.97;;;;-50
2021/10/06 16:06:22;;;;;;;3.02;1.50;;;;;;;21.12;67.76;100874.39;;;;-59
2021/10/06 16:09:22;;;;;;;3.16;1.58;;;;;;;21.10;67.73;100876.82;;;;-51
2021/10/06 16:12:23;;;;;;;3.39;1.40;;;;;;;21.09;67.76;100876.75;;;;-57
2021/10/06 16:15:22;;;;;;;2.33;1.46;;;;;;;21.08;67.77;100878.60;;;;-59
2021/10/06 16:18:22;;;;;;;1.87;1.42;;;;;;;21.07;67.83;100883.66;;;;-56
2021/10/06 16:21:24;;;;;;;2.55;1.41;;;;;;;21.05;67.89;100884.45;;;;-52
2021/10/06 16:24:22;;;;;;;3.39;1.67;;;;;;;21.05;67.85;100888.30;;;;-53
2021/10/06 16:27:22;;;;;;;4.70;1.70;;;;;;;21.06;67.50;100893.34;;;;-50
2021/10/06 16:30:22;;;;;;;5.19;1.69;;;;;;;21.04;67.72;100894.41;;;;-52
2021/10/06 16:33:22;;;;;;;4.13;1.59;;;;;;;21.04;67.87;100901.74;;;;-56
2021/10/06 16:36:22;;;;;;;4.39;1.60;;;;;;;21.03;67.96;100899.44;;;;-50
2021/10/06 16:39:22;;;;;;;3.06;1.61;;;;;;;21.03;68.08;100901.73;;;;-52
2021/10/06 16:42:22;;;;;;;4.93;1.60;;;;;;;21.03;68.05;100906.12;;;;-51
2021/10/06 16:45:22;;;;;;;5.24;1.72;;;;;;;21.03;68.06;100907.52;;;;-53